Versailles, Kentucky
Current Conditions -  °F | °C
As of 3:54 PM on Monday 24 Nov 2014 (Local Time) from KLEX Reporting Station
Overcast Overcast  
Wind Chill: 43°   Ceiling: 3500
Heat Index: 48°   Visibility: 10mi
Dew Point: 39°   Wind: 12mph
Humidity: 71%   Direction: 250°WSW
Pressure: 29.76"   Gusts: 21mph
Location:  38.05°N, 84.73°W
Report Text: KLEX 242054Z 25010G18KT 10SM SCT028 OVC035 09/04 A2976 RMK AO2 SLP075 T00890039 51037
Loading
Personal Weather Stations






























Interactive Weather Map New forecast layout! Learn more

10-Day Weather Forecast

Advertisements
Track Severe Weather on mobile